sensor_id;sensor_type;location;lat;lon;timestamp;pressure;altitude;pressure_sealevel;temperature;humidity
75646;BME280;64237;52.438;13.240;2022-10-31T00:00:47;101410.16;;;10.54;91.21
75646;BME280;64237;52.438;13.240;2022-10-31T00:03:12;101411.91;;;10.48;89.09
75646;BME280;64237;52.438;13.240;2022-10-31T00:05:45;101415.69;;;10.54;89.69
75646;BME280;64237;52.438;13.240;2022-10-31T00:08:11;101419.97;;;10.50;91.33
75646;BME280;64237;52.438;13.240;2022-10-31T00:10:41;101412.19;;;10.40;86.78
75646;BME280;64237;52.438;13.240;2022-10-31T00:13:08;101417.47;;;10.42;87.63
75646;BME280;64237;52.438;13.240;2022-10-31T00:15:34;101418.28;;;10.24;87.48
75646;BME280;64237;52.438;13.240;2022-10-31T00:18:01;101410.59;;;10.26;88.25
75646;BME280;64237;52.438;13.240;2022-10-31T00:20:26;101415.78;;;10.16;87.66
75646;BME280;64237;52.438;13.240;2022-10-31T00:22:52;101412.34;;;10.20;87.52
75646;BME280;64237;52.438;13.240;2022-10-31T00:25:17;101409.28;;;9.97;86.85
75646;BME280;64237;52.438;13.240;2022-10-31T00:27:42;101423.72;;;9.99;89.08
75646;BME280;64237;52.438;13.240;2022-10-31T00:30:08;101423.66;;;10.12;91.37
75646;BME280;64237;52.438;13.240;2022-10-31T00:32:33;101414.28;;;10.13;88.33
75646;BME280;64237;52.438;13.240;2022-10-31T00:34:59;101427.13;;;10.01;88.03
75646;BME280;64237;52.438;13.240;2022-10-31T00:37:24;101425.28;;;9.95;89.75
75646;BME280;64237;52.438;13.240;2022-10-31T00:39:49;101436.47;;;10.00;89.70
75646;BME280;64237;52.438;13.240;2022-10-31T00:42:15;101437.06;;;10.09;91.79
75646;BME280;64237;52.438;13.240;2022-10-31T00:44:40;101440.38;;;9.92;87.05
75646;BME280;64237;52.438;13.240;2022-10-31T00:47:06;101438.63;;;9.98;89.29
75646;BME280;64237;52.438;13.240;2022-10-31T00:49:31;101444.56;;;10.02;89.58
75646;BME280;64237;52.438;13.240;2022-10-31T00:51:56;101453.00;;;10.13;91.71
75646;BME280;64237;52.438;13.240;2022-10-31T00:54:22;101440.91;;;10.08;88.39
75646;BME280;64237;52.438;13.240;2022-10-31T00:56:47;101442.00;;;10.00;89.03
75646;BME280;64237;52.438;13.240;2022-10-31T00:59:12;101447.91;;;10.10;91.04
75646;BME280;64237;52.438;13.240;2022-10-31T01:01:37;101454.69;;;10.14;88.55
75646;BME280;64237;52.438;13.240;2022-10-31T01:04:03;101453.75;;;10.34;89.61
75646;BME280;64237;52.438;13.240;2022-10-31T01:06:28;101462.38;;;10.12;89.97
75646;BME280;64237;52.438;13.240;2022-10-31T01:08:54;101453.34;;;9.92;86.90
75646;BME280;64237;52.438;13.240;2022-10-31T01:11:22;101458.88;;;9.92;88.42
75646;BME280;64237;52.438;13.240;2022-10-31T01:13:49;101454.88;;;9.81;87.94
75646;BME280;64237;52.438;13.240;2022-10-31T01:16:18;101454.88;;;9.81;88.27
75646;BME280;64237;52.438;13.240;2022-10-31T01:18:45;101445.00;;;9.98;92.47
75646;BME280;64237;52.438;13.240;2022-10-31T01:21:25;101449.13;;;9.83;89.87
75646;BME280;64237;52.438;13.240;2022-10-31T01:23:53;101458.25;;;9.90;89.82
75646;BME280;64237;52.438;13.240;2022-10-31T01:26:27;101454.63;;;9.89;88.91
75646;BME280;64237;52.438;13.240;2022-10-31T01:28:54;101458.69;;;9.87;89.63
75646;BME280;64237;52.438;13.240;2022-10-31T01:31:21;101451.94;;;9.76;89.74
75646;BME280;64237;52.438;13.240;2022-10-31T01:33:47;101452.56;;;9.78;89.61
75646;BME280;64237;52.438;13.240;2022-10-31T01:36:17;101460.69;;;9.73;87.85
75646;BME280;64237;52.438;13.240;2022-10-31T01:38:44;101446.47;;;9.70;90.54
75646;BME280;64237;52.438;13.240;2022-10-31T01:41:11;101452.53;;;9.85;92.26
75646;BME280;64237;52.438;13.240;2022-10-31T01:43:48;101455.72;;;9.82;90.77
75646;BME280;64237;52.438;13.240;2022-10-31T01:46:13;101456.28;;;9.97;91.67
75646;BME280;64237;52.438;13.240;2022-10-31T01:48:41;101454.88;;;9.81;89.13
75646;BME280;64237;52.438;13.240;2022-10-31T01:51:07;101471.63;;;9.93;87.08
75646;BME280;64237;52.438;13.240;2022-10-31T01:53:34;101473.13;;;9.95;90.08
75646;BME280;64237;52.438;13.240;2022-10-31T01:56:00;101469.31;;;9.90;91.42
75646;BME280;64237;52.438;13.240;2022-10-31T01:58:28;101462.75;;;9.78;88.08
75646;BME280;64237;52.438;13.240;2022-10-31T02:00:58;101466.78;;;9.82;89.59
75646;BME280;64237;52.438;13.240;2022-10-31T02:03:25;101465.63;;;9.96;89.84
75646;BME280;64237;52.438;13.240;2022-10-31T02:05:53;101467.22;;;9.79;87.08
75646;BME280;64237;52.438;13.240;2022-10-31T02:08:21;101464.72;;;9.71;87.67
75646;BME280;64237;52.438;13.240;2022-10-31T02:10:49;101463.84;;;9.77;89.04
75646;BME280;64237;52.438;13.240;2022-10-31T02:13:15;101459.22;;;9.71;89.42
75646;BME280;64237;52.438;13.240;2022-10-31T02:15:42;101463.06;;;10.01;93.08
75646;BME280;64237;52.438;13.240;2022-10-31T02:18:09;101456.84;;;10.12;91.87
75646;BME280;64237;52.438;13.240;2022-10-31T02:20:44;101459.13;;;9.84;89.63
75646;BME280;64237;52.438;13.240;2022-10-31T02:23:20;101462.31;;;9.81;90.35
75646;BME280;64237;52.438;13.240;2022-10-31T02:34:19;101468.41;;;9.96;91.53
75646;BME280;64237;52.438;13.240;2022-10-31T02:42:40;101473.56;;;9.86;89.68
75646;BME280;64237;52.438;13.240;2022-10-31T02:45:26;101483.97;;;10.28;93.98
75646;BME280;64237;52.438;13.240;2022-10-31T02:47:56;101478.28;;;9.79;88.63
75646;BME280;64237;52.438;13.240;2022-10-31T02:50:27;101478.91;;;9.81;86.50
75646;BME280;64237;52.438;13.240;2022-10-31T02:52:54;101481.31;;;9.71;89.91
75646;BME280;64237;52.438;13.240;2022-10-31T02:57:59;101484.25;;;9.76;91.03
75646;BME280;64237;52.438;13.240;2022-10-31T03:00:26;101482.91;;;9.91;89.66
75646;BME280;64237;52.438;13.240;2022-10-31T03:03:06;101486.31;;;9.87;91.63
75646;BME280;64237;52.438;13.240;2022-10-31T03:08:33;101490.06;;;9.99;92.50
75646;BME280;64237;52.438;13.240;2022-10-31T03:11:01;101500.47;;;10.04;90.84
75646;BME280;64237;52.438;13.240;2022-10-31T03:13:40;101491.72;;;10.13;88.69
75646;BME280;64237;52.438;13.240;2022-10-31T03:16:16;101489.31;;;9.85;87.34
75646;BME280;64237;52.438;13.240;2022-10-31T03:18:53;101496.53;;;9.86;88.40
75646;BME280;64237;52.438;13.240;2022-10-31T03:21:26;101497.75;;;9.97;91.83
75646;BME280;64237;52.438;13.240;2022-10-31T03:23:53;101498.25;;;9.81;89.78
75646;BME280;64237;52.438;13.240;2022-10-31T03:26:21;101503.78;;;10.25;90.92
75646;BME280;64237;52.438;13.240;2022-10-31T03:28:54;101507.50;;;10.00;89.59
75646;BME280;64237;52.438;13.240;2022-10-31T03:31:26;101509.44;;;9.99;90.08
75646;BME280;64237;52.438;13.240;2022-10-31T03:33:56;101490.97;;;9.93;90.23
75646;BME280;64237;52.438;13.240;2022-10-31T03:36:24;101515.66;;;9.88;90.82
75646;BME280;64237;52.438;13.240;2022-10-31T03:38:51;101520.56;;;9.86;88.61
75646;BME280;64237;52.438;13.240;2022-10-31T03:41:20;101525.44;;;9.90;89.20
75646;BME280;64237;52.438;13.240;2022-10-31T03:43:53;101521.22;;;9.75;89.97
75646;BME280;64237;52.438;13.240;2022-10-31T03:46:19;101518.28;;;9.70;89.27
75646;BME280;64237;52.438;13.240;2022-10-31T03:48:44;101521.94;;;10.08;91.35
75646;BME280;64237;52.438;13.240;2022-10-31T03:53:47;101532.22;;;9.94;91.09
75646;BME280;64237;52.438;13.240;2022-10-31T03:56:24;101526.72;;;9.88;89.00
75646;BME280;64237;52.438;13.240;2022-10-31T04:01:23;101531.06;;;9.57;87.00
75646;BME280;64237;52.438;13.240;2022-10-31T04:03:51;101538.66;;;9.75;91.57
75646;BME280;64237;52.438;13.240;2022-10-31T04:06:18;101536.41;;;10.04;92.19
75646;BME280;64237;52.438;13.240;2022-10-31T04:08:59;101523.31;;;9.86;88.57
75646;BME280;64237;52.438;13.240;2022-10-31T04:11:29;101529.00;;;9.97;89.83
75646;BME280;64237;52.438;13.240;2022-10-31T04:13:57;101536.50;;;9.90;88.99
75646;BME280;64237;52.438;13.240;2022-10-31T04:16:23;101525.75;;;10.14;89.70
75646;BME280;64237;52.438;13.240;2022-10-31T04:18:49;101538.03;;;10.18;89.95
75646;BME280;64237;52.438;13.240;2022-10-31T04:21:15;101541.28;;;10.08;90.70
75646;BME280;64237;52.438;13.240;2022-10-31T04:23:41;101535.84;;;9.95;88.98
75646;BME280;64237;52.438;13.240;2022-10-31T04:26:10;101541.97;;;9.97;91.50
75646;BME280;64237;52.438;13.240;2022-10-31T04:28:40;101537.25;;;10.04;90.47
75646;BME280;64237;52.438;13.240;2022-10-31T04:31:05;101539.41;;;10.02;91.49
75646;BME280;64237;52.438;13.240;2022-10-31T04:33:30;101544.06;;;10.08;90.73
75646;BME280;64237;52.438;13.240;2022-10-31T04:35:56;101540.16;;;10.22;89.58
75646;BME280;64237;52.438;13.240;2022-10-31T04:38:21;101546.09;;;10.26;90.04
75646;BME280;64237;52.438;13.240;2022-10-31T04:40:46;101541.72;;;10.05;86.40
75646;BME280;64237;52.438;13.240;2022-10-31T04:43:12;101542.75;;;10.17;91.93
75646;BME280;64237;52.438;13.240;2022-10-31T04:45:37;101543.66;;;9.98;89.74
75646;BME280;64237;52.438;13.240;2022-10-31T04:48:02;101544.03;;;10.15;90.09
75646;BME280;64237;52.438;13.240;2022-10-31T04:50:28;101544.03;;;10.15;91.95
75646;BME280;64237;52.438;13.240;2022-10-31T04:52:53;101537.59;;;10.27;90.78
75646;BME280;64237;52.438;13.240;2022-10-31T04:55:19;101548.13;;;10.44;91.56
75646;BME280;64237;52.438;13.240;2022-10-31T04:57:47;101550.59;;;10.83;91.96
75646;BME280;64237;52.438;13.240;2022-10-31T05:00:15;101547.06;;;10.76;87.14
75646;BME280;64237;52.438;13.240;2022-10-31T05:05:12;101553.03;;;11.23;91.57
75646;BME280;64237;52.438;13.240;2022-10-31T05:07:39;101544.56;;;13.57;81.56
75646;BME280;64237;52.438;13.240;2022-10-31T05:10:05;101550.75;;;11.75;76.96
75646;BME280;64237;52.438;13.240;2022-10-31T05:12:30;101550.69;;;11.02;79.92
75646;BME280;64237;52.438;13.240;2022-10-31T05:14:56;101558.19;;;10.63;81.77
75646;BME280;64237;52.438;13.240;2022-10-31T05:17:21;101554.09;;;10.41;83.34
75646;BME280;64237;52.438;13.240;2022-10-31T05:19:46;101554.59;;;10.31;83.31
75646;BME280;64237;52.438;13.240;2022-10-31T05:22:12;101555.41;;;10.38;86.26
75646;BME280;64237;52.438;13.240;2022-10-31T05:24:37;101556.81;;;10.09;83.90
75646;BME280;64237;52.438;13.240;2022-10-31T05:27:02;101562.78;;;10.06;84.12
75646;BME280;64237;52.438;13.240;2022-10-31T05:29:28;101563.63;;;10.00;86.75
75646;BME280;64237;52.438;13.240;2022-10-31T05:31:53;101560.41;;;10.16;85.69
75646;BME280;64237;52.438;13.240;2022-10-31T05:34:18;101561.94;;;9.99;85.12
75646;BME280;64237;52.438;13.240;2022-10-31T05:36:43;101560.44;;;10.03;85.12
75646;BME280;64237;52.438;13.240;2022-10-31T05:39:09;101564.06;;;9.97;84.36
75646;BME280;64237;52.438;13.240;2022-10-31T05:41:36;101572.22;;;9.85;85.22
75646;BME280;64237;52.438;13.240;2022-10-31T05:44:02;101567.59;;;9.73;86.01
75646;BME280;64237;52.438;13.240;2022-10-31T05:46:27;101573.50;;;9.76;85.59
75646;BME280;64237;52.438;13.240;2022-10-31T05:48:53;101573.56;;;9.70;85.91
75646;BME280;64237;52.438;13.240;2022-10-31T05:51:18;101567.81;;;9.71;85.89
75646;BME280;64237;52.438;13.240;2022-10-31T05:53:45;101577.13;;;9.77;85.66
75646;BME280;64237;52.438;13.240;2022-10-31T05:56:11;101572.66;;;9.76;85.65
75646;BME280;64237;52.438;13.240;2022-10-31T05:58:36;101562.72;;;9.68;85.84
75646;BME280;64237;52.438;13.240;2022-10-31T06:01:01;101576.97;;;9.58;86.40
75646;BME280;64237;52.438;13.240;2022-10-31T06:03:27;101578.66;;;9.59;86.71
75646;BME280;64237;52.438;13.240;2022-10-31T06:05:52;101576.16;;;9.51;86.75
75646;BME280;64237;52.438;13.240;2022-10-31T06:08:17;101579.50;;;9.60;86.64
75646;BME280;64237;52.438;13.240;2022-10-31T06:10:43;101580.38;;;9.60;86.50
75646;BME280;64237;52.438;13.240;2022-10-31T06:13:08;101585.47;;;9.57;86.88
75646;BME280;64237;52.438;13.240;2022-10-31T06:15:34;101578.06;;;9.51;86.64
75646;BME280;64237;52.438;13.240;2022-10-31T06:18:04;101582.75;;;9.50;86.59
75646;BME280;64237;52.438;13.240;2022-10-31T06:20:31;101589.75;;;9.46;87.05
75646;BME280;64237;52.438;13.240;2022-10-31T06:22:57;101587.63;;;9.35;87.30
75646;BME280;64237;52.438;13.240;2022-10-31T06:25:23;101601.88;;;9.45;87.29
75646;BME280;64237;52.438;13.240;2022-10-31T06:27:48;101601.41;;;9.55;87.23
75646;BME280;64237;52.438;13.240;2022-10-31T06:30:14;101608.66;;;9.49;87.15
75646;BME280;64237;52.438;13.240;2022-10-31T06:32:40;101609.69;;;9.55;87.60
75646;BME280;64237;52.438;13.240;2022-10-31T06:35:06;101606.94;;;9.61;87.40
75646;BME280;64237;52.438;13.240;2022-10-31T06:37:31;101605.66;;;9.71;87.33
75646;BME280;64237;52.438;13.240;2022-10-31T06:39:56;101604.75;;;9.77;86.55
75646;BME280;64237;52.438;13.240;2022-10-31T06:42:22;101609.22;;;9.78;86.48
75646;BME280;64237;52.438;13.240;2022-10-31T06:44:47;101605.00;;;9.69;87.18
75646;BME280;64237;52.438;13.240;2022-10-31T06:47:13;101617.97;;;9.68;88.17
75646;BME280;64237;52.438;13.240;2022-10-31T06:49:38;101611.59;;;9.74;87.83
75646;BME280;64237;52.438;13.240;2022-10-31T06:52:04;101617.06;;;9.81;87.60
75646;BME280;64237;52.438;13.240;2022-10-31T06:54:30;101622.38;;;9.89;87.61
75646;BME280;64237;52.438;13.240;2022-10-31T06:56:55;101629.81;;;9.95;87.90
75646;BME280;64237;52.438;13.240;2022-10-31T06:59:20;101629.97;;;10.00;87.52
75646;BME280;64237;52.438;13.240;2022-10-31T07:01:46;101639.31;;;10.12;87.86
75646;BME280;64237;52.438;13.240;2022-10-31T07:04:11;101636.31;;;10.20;87.49
75646;BME280;64237;52.438;13.240;2022-10-31T07:06:37;101639.06;;;10.34;88.25
75646;BME280;64237;52.438;13.240;2022-10-31T07:09:03;101637.94;;;10.41;88.38
75646;BME280;64237;52.438;13.240;2022-10-31T07:11:29;101633.44;;;10.47;88.57
75646;BME280;64237;52.438;13.240;2022-10-31T07:13:54;101643.81;;;10.58;89.32
75646;BME280;64237;52.438;13.240;2022-10-31T07:16:19;101642.25;;;10.69;88.67
75646;BME280;64237;52.438;13.240;2022-10-31T07:18:45;101645.44;;;10.72;88.70
75646;BME280;64237;52.438;13.240;2022-10-31T07:21:10;101638.50;;;10.88;89.76
75646;BME280;64237;52.438;13.240;2022-10-31T07:23:35;101642.28;;;11.00;91.06
75646;BME280;64237;52.438;13.240;2022-10-31T07:26:00;101648.56;;;11.14;90.27
75646;BME280;64237;52.438;13.240;2022-10-31T07:28:26;101645.50;;;11.22;91.02
75646;BME280;64237;52.438;13.240;2022-10-31T07:30:54;101634.75;;;11.32;91.14
75646;BME280;64237;52.438;13.240;2022-10-31T07:33:20;101641.41;;;11.49;91.69
75646;BME280;64237;52.438;13.240;2022-10-31T07:35:46;101646.91;;;11.56;90.51
75646;BME280;64237;52.438;13.240;2022-10-31T07:38:13;101644.69;;;11.64;91.80
75646;BME280;64237;52.438;13.240;2022-10-31T07:40:39;101653.16;;;11.69;91.66
75646;BME280;64237;52.438;13.240;2022-10-31T07:43:05;101650.56;;;11.75;91.32
75646;BME280;64237;52.438;13.240;2022-10-31T07:45:31;101656.00;;;11.88;91.50
75646;BME280;64237;52.438;13.240;2022-10-31T07:47:56;101665.72;;;11.97;91.85
75646;BME280;64237;52.438;13.240;2022-10-31T07:50:27;101658.41;;;12.02;91.40
75646;BME280;64237;52.438;13.240;2022-10-31T07:53:04;101658.34;;;12.09;91.56
75646;BME280;64237;52.438;13.240;2022-10-31T07:55:30;101664.63;;;12.16;91.11
75646;BME280;64237;52.438;13.240;2022-10-31T07:57:59;101672.50;;;12.19;91.39
75646;BME280;64237;52.438;13.240;2022-10-31T08:00:26;101663.50;;;12.24;90.99
75646;BME280;64237;52.438;13.240;2022-10-31T08:02:59;101671.13;;;12.28;90.49
75646;BME280;64237;52.438;13.240;2022-10-31T08:05:24;101661.09;;;12.27;90.90
75646;BME280;64237;52.438;13.240;2022-10-31T08:07:49;101666.88;;;12.26;90.82
75646;BME280;64237;52.438;13.240;2022-10-31T08:10:18;101673.91;;;12.28;90.57
75646;BME280;64237;52.438;13.240;2022-10-31T08:12:44;101688.84;;;12.27;91.19
75646;BME280;64237;52.438;13.240;2022-10-31T08:15:09;101685.84;;;12.29;91.36
75646;BME280;64237;52.438;13.240;2022-10-31T08:17:36;101683.91;;;12.29;91.23
75646;BME280;64237;52.438;13.240;2022-10-31T08:20:02;101692.38;;;12.34;91.41
75646;BME280;64237;52.438;13.240;2022-10-31T08:22:28;101691.06;;;12.37;90.84
75646;BME280;64237;52.438;13.240;2022-10-31T08:24:53;101683.59;;;12.38;90.81
75646;BME280;64237;52.438;13.240;2022-10-31T08:27:19;101681.44;;;12.40;90.99
75646;BME280;64237;52.438;13.240;2022-10-31T08:29:44;101669.25;;;12.41;90.76
75646;BME280;64237;52.438;13.240;2022-10-31T08:32:09;101675.81;;;12.46;90.82
75646;BME280;64237;52.438;13.240;2022-10-31T08:34:35;101686.44;;;12.49;90.96
75646;BME280;64237;52.438;13.240;2022-10-31T08:37:00;101676.56;;;12.53;90.69
75646;BME280;64237;52.438;13.240;2022-10-31T08:39:25;101675.72;;;12.53;91.36
75646;BME280;64237;52.438;13.240;2022-10-31T08:41:51;101679.84;;;12.62;90.03
75646;BME280;64237;52.438;13.240;2022-10-31T08:44:16;101691.34;;;12.65;89.55
75646;BME280;64237;52.438;13.240;2022-10-31T08:46:41;101674.69;;;12.65;89.83
75646;BME280;64237;52.438;13.240;2022-10-31T08:49:07;101686.41;;;12.67;90.85
75646;BME280;64237;52.438;13.240;2022-10-31T08:51:33;101689.19;;;12.67;90.37
75646;BME280;64237;52.438;13.240;2022-10-31T08:53:58;101695.13;;;12.71;90.66
75646;BME280;64237;52.438;13.240;2022-10-31T08:56:23;101698.06;;;12.76;90.07
75646;BME280;64237;52.438;13.240;2022-10-31T08:58:49;101696.34;;;12.75;90.23
75646;BME280;64237;52.438;13.240;2022-10-31T09:01:16;101690.81;;;12.75;90.20
75646;BME280;64237;52.438;13.240;2022-10-31T09:03:41;101695.28;;;12.76;90.30
75646;BME280;64237;52.438;13.240;2022-10-31T09:06:08;101703.13;;;12.79;90.71
75646;BME280;64237;52.438;13.240;2022-10-31T09:08:35;101693.47;;;14.47;89.19
75646;BME280;64237;52.438;13.240;2022-10-31T09:11:01;101697.75;;;15.23;82.16
75646;BME280;64237;52.438;13.240;2022-10-31T09:13:27;101700.38;;;15.74;78.32
75646;BME280;64237;52.438;13.240;2022-10-31T09:15:52;101705.69;;;15.14;80.73
75646;BME280;64237;52.438;13.240;2022-10-31T09:18:20;101702.25;;;14.67;82.80
75646;BME280;64237;52.438;13.240;2022-10-31T09:20:47;101707.53;;;14.28;83.36
75646;BME280;64237;52.438;13.240;2022-10-31T09:23:14;101696.41;;;14.05;84.85
75646;BME280;64237;52.438;13.240;2022-10-31T09:25:41;101699.69;;;14.02;85.58
75646;BME280;64237;52.438;13.240;2022-10-31T09:28:09;101704.25;;;13.96;85.60
75646;BME280;64237;52.438;13.240;2022-10-31T09:30:35;101691.69;;;13.94;84.74
75646;BME280;64237;52.438;13.240;2022-10-31T09:33:06;101708.13;;;13.95;84.75
75646;BME280;64237;52.438;13.240;2022-10-31T09:35:33;101709.47;;;13.93;84.80
75646;BME280;64237;52.438;13.240;2022-10-31T09:38:00;101713.94;;;13.94;86.43
75646;BME280;64237;52.438;13.240;2022-10-31T09:40:47;101715.03;;;13.93;84.63
75646;BME280;64237;52.438;13.240;2022-10-31T09:46:08;101715.97;;;13.87;85.71
75646;BME280;64237;52.438;13.240;2022-10-31T09:51:18;101719.63;;;14.22;84.57
75646;BME280;64237;52.438;13.240;2022-10-31T09:56:23;101718.63;;;14.52;83.27
75646;BME280;64237;52.438;13.240;2022-10-31T09:58:53;101713.50;;;14.72;82.37
75646;BME280;64237;52.438;13.240;2022-10-31T10:03:53;101721.25;;;14.98;81.56
75646;BME280;64237;52.438;13.240;2022-10-31T10:06:25;101711.19;;;14.97;81.90
75646;BME280;64237;52.438;13.240;2022-10-31T10:08:52;101705.34;;;14.82;80.84
75646;BME280;64237;52.438;13.240;2022-10-31T10:14:13;101706.66;;;14.91;81.81
75646;BME280;64237;52.438;13.240;2022-10-31T10:22:46;101701.75;;;15.27;80.58
75646;BME280;64237;52.438;13.240;2022-10-31T10:33:03;101692.91;;;15.97;78.27
75646;BME280;64237;52.438;13.240;2022-10-31T10:35:33;101685.25;;;16.09;77.67
75646;BME280;64237;52.438;13.240;2022-10-31T10:40:58;101687.63;;;16.17;76.92
75646;BME280;64237;52.438;13.240;2022-10-31T10:43:37;101688.22;;;16.41;77.29
75646;BME280;64237;52.438;13.240;2022-10-31T10:46:19;101690.00;;;16.69;76.35
75646;BME280;64237;52.438;13.240;2022-10-31T10:49:31;101685.28;;;16.96;75.50
75646;BME280;64237;52.438;13.240;2022-10-31T10:52:45;101689.41;;;17.16;73.75
75646;BME280;64237;52.438;13.240;2022-10-31T10:57:58;101683.59;;;17.49;73.44
75646;BME280;64237;52.438;13.240;2022-10-31T11:00:30;101689.25;;;17.59;71.56
75646;BME280;64237;52.438;13.240;2022-10-31T11:02:56;101681.00;;;17.69;71.29
75646;BME280;64237;52.438;13.240;2022-10-31T11:07:59;101678.50;;;18.15;70.22
75646;BME280;64237;52.438;13.240;2022-10-31T11:10:24;101679.09;;;18.22;69.25
75646;BME280;64237;52.438;13.240;2022-10-31T11:15:49;101669.16;;;18.52;68.01
75646;BME280;64237;52.438;13.240;2022-10-31T11:18:20;101663.19;;;19.10;65.95
75646;BME280;64237;52.438;13.240;2022-10-31T11:20:52;101664.91;;;19.16;65.24
75646;BME280;64237;52.438;13.240;2022-10-31T11:23:19;101670.00;;;19.85;63.50
75646;BME280;64237;52.438;13.240;2022-10-31T11:25:59;101662.34;;;20.16;62.07
75646;BME280;64237;52.438;13.240;2022-10-31T11:28:27;101656.34;;;20.53;61.03
75646;BME280;64237;52.438;13.240;2022-10-31T11:31:13;101661.31;;;20.77;60.21
75646;BME280;64237;52.438;13.240;2022-10-31T11:36:22;101663.94;;;21.07;58.62
75646;BME280;64237;52.438;13.240;2022-10-31T11:38:48;101660.28;;;21.07;58.73
75646;BME280;64237;52.438;13.240;2022-10-31T11:41:23;101662.22;;;21.55;57.34
75646;BME280;64237;52.438;13.240;2022-10-31T11:43:53;101666.19;;;21.83;56.05
75646;BME280;64237;52.438;13.240;2022-10-31T11:48:54;101650.41;;;21.82;56.15
75646;BME280;64237;52.438;13.240;2022-10-31T11:51:22;101651.69;;;21.66;56.55
75646;BME280;64237;52.438;13.240;2022-10-31T11:53:53;101655.94;;;21.93;56.58
75646;BME280;64237;52.438;13.240;2022-10-31T11:56:20;101654.38;;;21.81;55.98
75646;BME280;64237;52.438;13.240;2022-10-31T11:59:03;101652.22;;;21.68;56.62
75646;BME280;64237;52.438;13.240;2022-10-31T12:01:31;101656.63;;;21.79;56.27
75646;BME280;64237;52.438;13.240;2022-10-31T12:06:32;101656.06;;;21.48;57.25
75646;BME280;64237;52.438;13.240;2022-10-31T12:08:59;101646.88;;;22.01;55.53
75646;BME280;64237;52.438;13.240;2022-10-31T12:11:41;101649.53;;;22.40;54.85
75646;BME280;64237;52.438;13.240;2022-10-31T12:14:36;101638.72;;;22.23;54.91
75646;BME280;64237;52.438;13.240;2022-10-31T12:17:18;101639.44;;;21.81;55.88
75646;BME280;64237;52.438;13.240;2022-10-31T12:25:24;101626.19;;;22.10;55.40
75646;BME280;64237;52.438;13.240;2022-10-31T12:28:03;101632.59;;;22.16;55.26
75646;BME280;64237;52.438;13.240;2022-10-31T12:39:38;101631.81;;;19.34;64.30
75646;BME280;64237;52.438;13.240;2022-10-31T12:52:29;101613.56;;;18.28;68.85
75646;BME280;64237;52.438;13.240;2022-10-31T12:55:10;101619.16;;;18.18;70.18
75646;BME280;64237;52.438;13.240;2022-10-31T12:57:42;101617.41;;;18.07;70.24
75646;BME280;64237;52.438;13.240;2022-10-31T13:00:15;101605.84;;;17.93;70.70
75646;BME280;64237;52.438;13.240;2022-10-31T13:05:44;101606.44;;;17.63;71.54
75646;BME280;64237;52.438;13.240;2022-10-31T13:08:17;101612.84;;;17.54;72.14
75646;BME280;64237;52.438;13.240;2022-10-31T13:13:41;101609.72;;;17.50;72.54
75646;BME280;64237;52.438;13.240;2022-10-31T13:16:13;101607.94;;;17.39;73.16
75646;BME280;64237;52.438;13.240;2022-10-31T13:18:45;101605.69;;;17.36;73.54
75646;BME280;64237;52.438;13.240;2022-10-31T13:21:25;101601.72;;;17.27;74.12
75646;BME280;64237;52.438;13.240;2022-10-31T13:23:52;101602.75;;;17.21;74.14
75646;BME280;64237;52.438;13.240;2022-10-31T13:26:46;101592.31;;;17.06;74.86
75646;BME280;64237;52.438;13.240;2022-10-31T13:29:20;101606.59;;;17.09;74.96
75646;BME280;64237;52.438;13.240;2022-10-31T13:31:48;101602.06;;;17.03;75.20
75646;BME280;64237;52.438;13.240;2022-10-31T13:34:30;101608.69;;;16.97;75.48
75646;BME280;64237;52.438;13.240;2022-10-31T13:37:37;101604.16;;;16.91;75.69
75646;BME280;64237;52.438;13.240;2022-10-31T13:45:22;101599.78;;;16.52;77.41
75646;BME280;64237;52.438;13.240;2022-10-31T13:47:58;101602.53;;;16.46;77.80
75646;BME280;64237;52.438;13.240;2022-10-31T13:50:29;101603.53;;;16.35;78.34
75646;BME280;64237;52.438;13.240;2022-10-31T13:53:18;101587.59;;;16.36;78.41
75646;BME280;64237;52.438;13.240;2022-10-31T13:55:46;101594.81;;;16.32;78.46
75646;BME280;64237;52.438;13.240;2022-10-31T14:03:37;101590.41;;;16.14;79.18
75646;BME280;64237;52.438;13.240;2022-10-31T14:06:03;101580.88;;;16.10;79.18
75646;BME280;64237;52.438;13.240;2022-10-31T14:08:33;101585.59;;;16.09;79.65
75646;BME280;64237;52.438;13.240;2022-10-31T14:10:59;101576.31;;;16.04;79.85
75646;BME280;64237;52.438;13.240;2022-10-31T14:13:32;101577.03;;;15.94;80.27
75646;BME280;64237;52.438;13.240;2022-10-31T14:16:05;101575.41;;;15.76;80.45
75646;BME280;64237;52.438;13.240;2022-10-31T14:18:34;101571.44;;;15.72;80.63
75646;BME280;64237;52.438;13.240;2022-10-31T14:21:00;101572.38;;;15.61;81.10
75646;BME280;64237;52.438;13.240;2022-10-31T14:23:52;101580.81;;;15.50;81.70
75646;BME280;64237;52.438;13.240;2022-10-31T14:28:53;101573.22;;;15.45;81.67
75646;BME280;64237;52.438;13.240;2022-10-31T14:31:34;101576.44;;;15.37;82.32
75646;BME280;64237;52.438;13.240;2022-10-31T14:44:26;101568.47;;;14.95;84.02
75646;BME280;64237;52.438;13.240;2022-10-31T14:47:19;101565.13;;;14.93;83.99
75646;BME280;64237;52.438;13.240;2022-10-31T14:52:18;101558.88;;;14.86;84.23
75646;BME280;64237;52.438;13.240;2022-10-31T14:54:49;101555.22;;;14.69;84.61
75646;BME280;64237;52.438;13.240;2022-10-31T14:57:23;101564.69;;;14.68;84.77
75646;BME280;64237;52.438;13.240;2022-10-31T14:59:57;101549.84;;;14.51;85.11
75646;BME280;64237;52.438;13.240;2022-10-31T15:02:28;101564.38;;;14.53;85.65